Richmond, VA (23236)

8:49 AM EST on February 01, 2015 (GMT -0500)
2 Miles SSE Midlothian | Change Station
CLOSE
Current Station
Personal Weather Station
Location: Midlothian, VA
Elevation: 266 ft
Nearby Weather Stations

Elev 266 ft 37.47 °N, 77.62 °W | Updated 3 minutes ago

Overcast
Overcast
29.8 °F
Feels Like 30 °F
N
0.0
Wind Variable Wind from SW
Gusts 3.0 mph

Today
High -- | Low -- °F
--% Chance of Precip.
Yesterday
High -- | Low -- °F
Precip. -- in
7:13 AM 5:34 PM
Waxing Gibbous, 95% visible
Pressure 30.32 in
Visibility 10.0 miles
Clouds Scattered Clouds 8000 ft
Mostly Cloudy 12000 ft
Overcast 30000 ft
Windchill 30 °F
Dew Point 20 °F
Humidity 66%
Rainfall 0.00 in
Snow Depth Not available.
UV 0 out of 12
Pollen 2.90 out of 12
Air Quality Not available.
Flu Activity Not available.
METAR KRIC 011254Z 14003KT 10SM SCT080 BKN120 OVC300 M02/M06 A3030 RMK AO2 SLP266 T10221061

More Conditions Fewer Conditions

Pressure 30.32 in
Visibility 10.0 miles
Clouds Scattered Clouds 8000 ft
Mostly Cloudy 12000 ft
Overcast 30000 ft
Windchill 30 °F
Dew Point 20 °F
Humidity 66%
Rainfall 0.00 in
Snow Depth Not available.
UV 0 out of 12
Pollen 2.90 out of 12
Air Quality Not available.
Flu Activity Not available.
METAR KRIC 011254Z 14003KT 10SM SCT080 BKN120 OVC300 M02/M06 A3030 RMK AO2 SLP266 T10221061

More Conditions Fewer Conditions

10-Day Weather Forecast

Almanac

Astronomy

Feb. 01, 2015 Rise Set
Actual Time
Civil Twilight
Nautical Twilight
Astronomical Twilight
Moon
Length of Visible Light
Length of Day
Tomorrow will be .
, % of the Moon is Illuminated

Today's Extremes

State Highs State Lows

Community

WunderPhotos

Upload Photos

1,792,363 photos uploaded!

WunderBlogs® & News

Nearby

Air Quality

  Air Quality AQ Index Pollutant
Not available.

Snow Depth

Station Depth Elevation

Earthquake Activity

City Distance Mag. Time & Date
Minimum magnitude displayed is 2.5.

Coastal Water Temperatures

Place Temperature

Nearby Weather Stations